Latest Weather Observations for Cooktown

IDQ60801

Issued at 1:05 am EST Tuesday 22 April 2014 (issued every 30 minutes, with the page automatically refreshed every 10 minutes)

About weather observations | Map of weather stations | Latest weather observations for QLD | Other Formats
Station Details ID: 031209 Name: COOKTOWN AIRPORT Lat: -15.45 Lon: 145.19 Height: 4.8 m
Data from the previous 72 hours. | See also: Recent months at Cooktown
Date/Time
EST
Temp
°C
App
Temp
°C
Dew
Point
Rel
Hum
%
Delta-T
°C
Wind Press
QNH
hPa
Press
MSL
hPa
Rain
since 9 am
mm
Dir
 
Spd
km/h
Gust
km/h
Spd
kts
Gust
kts
22/01:00am 24.6 26.6 23.0 91 1.1 SE 17 26 9 14 1013.7 - 28.0
22/12:52am 24.6 26.6 23.0 91 1.1 SE 17 26 9 14 1013.8 - 27.8
22/12:30am 24.9 27.4 23.1 90 1.2 SE 15 20 8 11 1014.0 - 27.8
22/12:00am 24.7 27.6 23.1 91 1.1 SE 13 19 7 10 1014.2 1014.1 27.6
 
Date/Time
EST
Temp
°C
App
Temp
°C
Dew
Point
Rel
Hum
%
Delta-T
°C
Wind Press
QNH
hPa
Press
MSL
hPa
Rain
since 9 am
mm
Dir
 
Spd
km/h
Gust
km/h
Spd
kts
Gust
kts
21/11:33pm 24.4 27.0 22.6 90 1.2 ESE 13 22 7 12 1014.3 - 27.6
21/11:30pm 24.4 27.0 22.6 90 1.2 ESE 13 22 7 12 1014.3 - 27.6
21/11:00pm 24.1 27.7 23.1 94 0.7 SE 9 15 5 8 1014.5 - 27.6
21/10:45pm 23.9 27.0 22.9 94 0.7 SE 11 17 6 9 1014.7 - 27.6
21/10:30pm 23.7 26.2 22.4 92 0.9 SE 13 20 7 11 1014.8 - 27.6
21/10:09pm 23.6 24.7 22.4 93 0.8 ESE 20 33 11 18 1015.0 - 27.4
21/10:00pm 23.7 23.8 22.5 93 0.8 ESE 26 37 14 20 1014.9 - 27.0
21/09:55pm 23.9 24.1 22.7 93 0.8 ESE 26 39 14 21 1014.9 - 27.0
21/09:50pm 23.9 24.4 22.7 93 0.8 ESE 24 39 13 21 1014.8 - 26.8
21/09:48pm 23.8 24.3 22.6 93 0.8 ESE 24 35 13 19 1014.9 - 26.8
21/09:42pm 23.8 24.2 22.5 92 0.9 ESE 24 35 13 19 1014.9 - 26.2
21/09:30pm 23.3 22.7 22.7 96 0.4 E 30 41 16 22 1014.8 - 26.2
21/09:14pm 23.7 23.7 23.0 96 0.5 E 28 50 15 27 1014.7 - 18.8
21/09:00pm 24.2 25.3 23.6 96 0.4 E 24 33 13 18 1014.7 1014.6 14.6
21/08:36pm 24.4 24.8 23.7 96 0.5 E 28 39 15 21 1014.6 - 6.0
21/08:30pm 24.5 24.6 23.3 93 0.8 E 28 39 15 21 1014.6 - 4.8
21/08:00pm 25.3 26.9 22.9 86 1.6 ESE 19 32 10 17 1014.1 - 4.6
21/07:30pm 24.8 27.9 23.5 92 0.9 SE 13 19 7 10 1013.7 - 4.6
21/07:00pm 24.3 27.5 23.1 93 0.8 SE 11 17 6 9 1013.5 - 4.6
21/06:38pm 24.3 26.7 23.0 92 0.9 SE 15 22 8 12 1013.3 - 4.6
21/06:30pm 24.3 26.2 22.8 91 1.0 SE 17 32 9 17 1013.2 - 4.2
21/06:00pm 24.7 27.9 23.1 91 1.1 ESE 11 19 6 10 1012.9 1012.8 4.2
21/05:58pm 24.7 27.9 23.1 91 1.1 ESE 11 19 6 10 1012.9 - 4.2
21/05:30pm 24.6 27.6 23.3 92 0.9 SE 13 22 7 12 1012.7 - 4.0
21/05:11pm 24.6 27.1 23.1 91 1.0 SE 15 22 8 12 1012.8 - 3.8
21/05:09pm 24.5 27.0 23.2 92 0.9 SE 15 24 8 13 1012.8 - 3.8
21/05:00pm 24.4 26.5 23.1 92 0.9 SE 17 24 9 13 1012.7 - 3.6
21/04:30pm 24.2 26.6 23.0 93 0.8 ESE 15 20 8 11 1012.5 - 3.6
21/04:26pm 24.2 26.6 22.9 92 0.9 ESE 15 20 8 11 1012.4 - 3.6
21/04:05pm 24.4 26.2 23.5 95 0.6 ESE 20 33 11 18 1012.4 - 3.2
21/04:00pm 24.5 25.4 23.3 93 0.8 ESE 24 33 13 18 1012.4 - 3.0
21/03:55pm 24.7 25.5 23.1 91 1.1 ESE 24 33 13 18 1012.4 - 2.8
21/03:48pm 25.6 26.6 22.8 84 1.9 ESE 22 32 12 17 1012.3 - 2.2
21/03:35pm 25.6 27.2 22.8 84 1.9 ESE 19 32 10 17 1012.3 - 2.2
21/03:30pm 25.6 27.7 23.1 86 1.7 ESE 17 26 9 14 1012.3 - 2.2
21/03:21pm 25.4 28.3 23.2 88 1.5 SE 13 20 7 11 1012.2 - 2.2
21/03:00pm 25.0 26.9 22.8 87 1.5 SE 17 32 9 17 1012.2 1012.1 2.2
21/02:49pm 24.9 26.6 23.1 90 1.2 ESE 19 30 10 16 1012.1 - 2.2
21/02:30pm 24.4 25.2 23.1 92 0.9 ESE 24 39 13 21 1012.1 - 2.2
21/02:29pm 24.6 25.4 23.1 91 1.0 ESE 24 39 13 21 1012.2 - 2.0
21/02:21pm 26.4 27.6 23.2 82 2.2 ESE 22 35 12 19 1011.9 - 1.4
21/02:05pm 26.0 27.6 23.2 84 1.9 ESE 20 33 11 18 1012.0 - 1.4
21/02:00pm 26.3 28.4 23.7 85 1.8 ESE 19 33 10 18 1011.9 - 1.4
21/01:57pm 26.4 28.6 23.9 86 1.7 ESE 19 28 10 15 1012.0 - 1.4
21/01:37pm 25.2 27.0 23.6 91 1.1 ESE 20 37 11 20 1012.1 - 1.0
21/01:30pm 26.0 27.5 23.1 84 2.0 SE 20 37 11 20 1012.0 - 0.8
21/01:13pm 26.5 28.0 23.1 81 2.3 ESE 20 33 11 18 1012.3 - 0.8
21/01:00pm 26.4 28.2 23.2 82 2.2 ESE 19 32 10 17 1012.4 - 0.8
21/12:48pm 26.2 26.9 22.3 79 2.6 ESE 22 33 12 18 1012.5 - 0.8
21/12:36pm 25.1 25.8 23.0 88 1.4 ESE 24 33 13 18 1012.8 - 0.8
21/12:30pm 24.5 24.0 22.9 91 1.1 ESE 30 48 16 26 1013.0 - 0.6
21/12:28pm 24.5 23.6 22.9 91 1.1 ESE 32 48 17 26 1013.0 - 0.6
21/12:22pm 25.1 24.7 22.4 85 1.8 ESE 28 48 15 26 1013.1 - 0.4
21/12:19pm 26.2 26.5 23.0 82 2.2 ESE 26 48 14 26 1013.0 - 0.4
21/12:00pm 26.5 26.7 22.8 80 2.5 ESE 26 37 14 20 1013.3 1013.2 0.4
21/11:30am 26.0 27.7 23.4 85 1.8 ESE 20 33 11 18 1013.8 - 0.4
21/11:20am 25.3 26.6 23.4 89 1.3 ESE 22 33 12 18 1014.0 - 0.4
21/11:00am 24.5 23.6 23.2 92 0.9 ESE 33 52 18 28 1014.5 - 0.4
21/10:58am 24.5 23.5 23.0 91 1.0 ESE 33 52 18 28 1014.5 - 0.4
21/10:53am 25.4 24.3 22.9 86 1.7 E 33 52 18 28 1014.4 - 0.4
21/10:40am 25.9 28.2 23.4 86 1.7 SE 17 28 9 15 1014.4 - 0.2
21/10:30am 26.0 28.3 23.4 85 1.8 SE 17 26 9 14 1014.6 - 0.2
21/10:27am 26.1 28.3 23.3 84 1.9 SE 17 24 9 13 1014.6 - 0.2
21/10:21am 26.3 27.8 23.1 82 2.2 ESE 20 28 11 15 1014.6 - 0.2
21/10:00am 25.9 28.0 23.7 88 1.5 SE 19 28 10 15 1014.7 - 0.2
21/09:38am 24.8 26.8 22.9 89 1.3 ESE 17 26 9 14 1014.6 - 0.2
21/09:30am 24.3 25.9 22.8 91 1.0 ESE 19 37 10 20 1014.7 - 0.2
21/09:23am 24.3 24.7 22.5 90 1.2 ESE 24 37 13 20 1014.6 - 0.2
21/09:14am 24.9 26.5 23.3 91 1.1 ESE 20 35 11 19 1014.4 - 0.2
21/09:00am 24.5 24.9 23.2 92 0.9 ESE 26 43 14 23 1014.4 1014.3 1.4
21/08:53am 24.8 25.1 23.0 90 1.2 ESE 26 43 14 23 1014.3 - 0.4
21/08:47am 26.2 26.1 22.3 79 2.6 ESE 26 37 14 20 1014.1 - 0.0
21/08:37am 26.3 26.4 21.8 76 3.0 ESE 24 39 13 21 1014.0 - 0.0
21/08:30am 26.3 26.8 22.0 77 2.9 ESE 22 39 12 21 1013.9 - 0.0
21/08:27am 26.1 27.4 22.7 81 2.3 SE 20 32 11 17 1013.9 - 0.0
21/08:00am 26.2 26.7 22.0 77 2.8 ESE 22 37 12 20 1013.8 - 0.0
21/07:30am 26.2 26.3 21.9 77 2.9 ESE 24 44 13 24 1013.4 - 0.0
21/07:00am 26.3 25.5 21.6 75 3.1 ESE 28 46 15 25 1013.2 - 0.0
21/06:59am 26.2 25.3 21.5 75 3.1 ESE 28 46 15 25 1013.1 - 0.0
21/06:30am 26.1 26.2 21.1 74 3.3 ESE 22 37 12 20 1012.9 - 0.0
21/06:00am 26.3 26.1 20.5 70 3.8 ESE 22 39 12 21 1012.4 1012.3 0.0
21/05:30am 26.2 25.9 20.4 70 3.8 ESE 22 37 12 20 1012.2 - 0.0
21/05:00am 26.2 26.1 20.7 71 3.6 ESE 22 43 12 23 1012.0 - 0.0
21/04:30am 25.8 26.0 20.6 73 3.4 ESE 20 35 11 19 1012.0 - 0.0
21/04:00am 25.6 25.5 20.7 74 3.2 ESE 22 35 12 19 1011.9 - 0.0
21/03:30am 26.0 25.8 19.7 68 4.1 SE 20 35 11 19 1011.8 - 0.0
21/03:00am 26.3 25.1 19.3 65 4.5 SE 24 44 13 24 1011.7 1011.6 0.0
21/02:30am 26.1 25.5 19.8 68 4.1 ESE 22 33 12 18 1011.9 - 0.0
21/02:00am 26.2 25.8 19.4 66 4.4 ESE 20 35 11 19 1011.8 - 0.0
21/01:30am 26.3 25.0 19.1 64 4.6 ESE 24 43 13 23 1012.1 - 0.0
21/01:00am 26.0 25.8 19.8 68 4.0 ESE 20 33 11 18 1012.3 - 0.0
21/12:30am 26.1 24.9 19.3 66 4.4 ESE 24 37 13 20 1012.8 - 0.0
21/12:00am 26.1 25.3 19.3 66 4.4 SE 22 37 12 20 1013.2 1013.1 0.0
 
Date/Time
EST
Temp
°C
App
Temp
°C
Dew
Point
Rel
Hum
%
Delta-T
°C
Wind Press
QNH
hPa
Press
MSL
hPa
Rain
since 9 am
mm
Dir
 
Spd
km/h
Gust
km/h
Spd
kts
Gust
kts
20/11:30pm 25.8 25.7 19.6 68 4.0 ESE 19 35 10 19 1013.4 - 0.0
20/11:00pm 26.1 25.4 19.4 66 4.3 ESE 22 30 12 16 1013.9 - 0.0
20/10:30pm 25.8 25.6 19.4 67 4.1 ESE 19 26 10 14 1014.1 - 0.0
20/10:00pm 25.6 26.3 19.7 70 3.8 ESE 15 26 8 14 1013.8 - 0.0
20/09:30pm 25.8 25.3 19.1 66 4.3 SE 20 39 11 21 1014.0 - 0.0
20/09:00pm 25.5 25.5 18.9 67 4.2 SE 17 26 9 14 1014.1 1014.0 0.0
20/08:30pm 25.6 25.1 19.0 67 4.2 ESE 20 32 11 17 1013.9 - 0.0
20/08:00pm 25.0 25.6 20.2 74 3.1 SE 17 28 9 15 1013.8 - 0.0
20/07:30pm 24.9 25.4 19.3 71 3.6 SE 15 33 8 18 1013.6 - 0.0
20/07:00pm 24.9 24.3 18.4 67 4.1 SE 19 32 10 17 1013.4 - 0.0
20/06:30pm 24.9 25.4 18.4 67 4.1 SE 13 22 7 12 1013.3 - 0.0
20/06:00pm 25.1 24.6 19.2 70 3.8 SE 20 37 11 20 1013.1 1012.9 0.0
20/05:30pm 25.6 25.2 18.9 66 4.3 SE 19 32 10 17 1012.8 - 0.0
20/05:00pm 26.4 25.7 19.6 66 4.4 SE 22 35 12 19 1012.6 - 0.0
20/04:30pm 25.8 24.9 19.8 69 3.9 SE 24 44 13 24 1012.4 - 0.0
20/04:00pm 27.4 26.9 19.2 61 5.3 SE 20 32 11 17 1012.0 - 0.0
20/03:30pm 27.0 25.3 18.9 61 5.2 ESE 26 43 14 23 1011.9 - 0.0
20/03:00pm 27.9 25.5 19.2 59 5.6 ESE 30 44 16 24 1011.7 1011.6 0.0
20/02:30pm 27.7 25.9 18.7 58 5.8 SE 26 39 14 21 1011.7 - 0.0
20/02:00pm 28.0 26.7 19.0 58 5.8 ESE 24 41 13 22 1011.9 - 0.0
20/01:32pm 27.8 25.0 17.3 52 6.6 SE 28 48 15 26 1012.2 - 0.0
20/01:30pm 27.5 25.1 17.3 53 6.4 SE 26 43 14 23 1012.3 - 0.0
20/01:10pm 27.5 25.0 18.0 56 6.0 SE 28 46 15 25 1012.5 - 0.0
20/01:00pm 27.2 25.0 18.6 59 5.5 SE 28 43 15 23 1012.5 - 0.0
20/12:39pm 27.6 25.4 18.7 58 5.7 SE 28 48 15 26 1012.7 - 0.0
20/12:30pm 27.5 26.1 18.8 59 5.6 SE 24 39 13 21 1012.9 - 0.0
20/12:18pm 27.6 25.6 19.1 59 5.5 ESE 28 50 15 27 1013.0 - 0.0
20/12:00pm 27.3 26.2 18.7 59 5.5 SE 22 43 12 23 1013.3 1013.2 0.0
20/11:30am 27.5 25.5 18.2 57 5.9 ESE 26 41 14 22 1013.6 - 0.0
20/11:00am 27.9 25.9 18.3 56 6.1 ESE 26 37 14 20 1014.1 - 0.0
20/10:30am 27.5 25.9 18.4 57 5.8 SE 24 39 13 21 1014.3 - 0.0
20/10:00am 26.9 24.8 18.1 58 5.6 ESE 26 46 14 25 1014.2 - 0.0
20/09:53am 27.0 24.8 18.7 60 5.3 ESE 28 46 15 25 1014.2 - 0.0
20/09:30am 27.1 24.6 18.1 58 5.7 ESE 28 44 15 24 1014.1 - 0.0
20/09:00am 26.9 24.6 17.5 56 5.9 ESE 26 39 14 21 1013.8 1013.7 0.0
20/08:30am 26.7 25.1 17.5 57 5.8 ESE 22 41 12 22 1013.4 - 0.0
20/08:00am 26.2 24.5 18.0 60 5.2 ESE 24 43 13 23 1013.2 - 0.0
20/07:30am 25.7 24.4 18.1 63 4.8 ESE 22 35 12 19 1013.0 - 0.0
20/07:00am 25.4 24.1 18.1 64 4.6 ESE 22 33 12 18 1012.9 - 0.0
20/06:30am 25.5 23.4 18.0 63 4.7 ESE 26 39 14 21 1012.5 - 0.0
20/06:00am 25.5 23.5 18.2 64 4.6 ESE 26 43 14 23 1012.3 1012.2 0.0
20/05:30am 25.2 24.2 18.9 68 4.0 ESE 22 33 12 18 1011.9 - 0.0
20/05:00am 25.4 24.2 19.3 69 3.9 ESE 24 37 13 20 1011.7 - 0.0
20/04:30am 25.4 25.2 19.3 69 3.9 ESE 19 28 10 15 1011.8 - 0.0
20/04:00am 25.3 24.2 18.7 67 4.2 ESE 22 39 12 21 1011.7 - 0.0
20/03:30am 25.4 24.5 19.0 67 4.1 ESE 22 33 12 18 1011.7 - 0.0
20/03:00am 25.4 24.6 19.3 69 3.9 ESE 22 33 12 18 1011.7 1011.6 0.0
20/02:30am 25.2 25.5 19.6 71 3.6 ESE 17 24 9 13 1012.0 - 0.0
20/02:00am 25.4 25.2 19.3 69 3.9 ESE 19 28 10 15 1012.2 - 0.0
20/01:30am 25.7 24.7 18.8 65 4.4 ESE 22 33 12 18 1012.4 - 0.0
20/01:00am 25.3 24.8 19.0 68 4.0 ESE 20 35 11 19 1012.8 - 0.0
20/12:30am 25.4 25.1 19.2 68 4.0 ESE 19 26 10 14 1013.2 - 0.0
20/12:00am 25.3 25.5 19.4 70 3.8 ESE 17 30 9 16 1013.5 1013.5 0.0
 
Date/Time
EST
Temp
°C
App
Temp
°C
Dew
Point
Rel
Hum
%
Delta-T
°C
Wind Press
QNH
hPa
Press
MSL
hPa
Rain
since 9 am
mm
Dir
 
Spd
km/h
Gust
km/h
Spd
kts
Gust
kts
19/11:30pm 25.6 25.2 19.0 67 4.2 ESE 19 35 10 19 1013.7 - 0.0
19/11:00pm 25.7 25.5 19.7 69 3.9 ESE 20 28 11 15 1013.7 - 0.0
19/10:30pm 25.5 25.4 19.6 70 3.8 ESE 19 28 10 15 1014.0 - 0.0
19/10:00pm 25.7 25.3 19.0 66 4.3 ESE 19 30 10 16 1014.0 - 0.0
19/09:30pm 25.5 25.3 19.3 68 4.0 ESE 19 28 10 15 1014.2 - 0.0
19/09:00pm 25.9 25.4 19.0 65 4.4 ESE 20 35 11 19 1014.0 1013.9 0.0
19/08:30pm 25.8 25.6 19.3 67 4.2 ESE 19 28 10 15 1013.8 - 0.0
19/08:00pm 25.6 25.2 18.9 66 4.3 SE 19 28 10 15 1013.6 - 0.0
19/07:30pm 25.7 25.3 19.0 66 4.3 SE 19 33 10 18 1013.4 - 0.0
19/07:00pm 25.8 25.3 18.7 65 4.5 ESE 19 32 10 17 1013.1 - 0.0
19/06:30pm 25.7 25.6 18.8 65 4.4 ESE 17 24 9 13 1012.8 - 0.0
19/06:00pm 26.0 25.8 18.6 63 4.7 ESE 17 26 9 14 1012.7 1012.6 0.0
19/05:30pm 26.4 25.9 18.7 62 4.9 ESE 19 32 10 17 1012.6 - 0.0
19/05:00pm 26.7 26.2 19.1 63 4.9 ESE 20 35 11 19 1012.2 - 0.0
19/04:30pm 27.5 26.3 19.3 61 5.3 ESE 24 41 13 22 1012.0 - 0.0
19/04:00pm 27.4 26.4 19.7 63 5.0 ESE 24 37 13 20 1011.7 - 0.0
19/03:30pm 27.7 27.1 19.7 61 5.2 ESE 22 41 12 22 1011.7 - 0.0
19/03:00pm 27.3 26.5 20.1 64 4.7 ESE 24 37 13 20 1012.0 1011.9 0.0
19/02:30pm 28.1 27.4 20.3 62 5.1 ESE 24 39 13 21 1012.2 - 0.0
19/02:00pm 27.4 26.8 20.4 65 4.6 ESE 24 39 13 21 1012.5 - 0.0
19/01:30pm 27.7 27.0 20.2 63 4.9 ESE 24 35 13 19 1012.9 - 0.0
19/01:00pm 28.1 28.1 21.0 65 4.7 SE 22 35 12 19 1013.2 - 0.0
19/12:30pm 27.8 27.6 20.5 64 4.8 SE 22 33 12 18 1013.8 - 0.0
19/12:00pm 28.5 28.9 21.8 67 4.5 SE 22 35 12 19 1014.2 1014.0 0.0
19/11:30am 28.8 28.1 21.8 66 4.7 E 28 41 15 22 1014.4 - 0.0
19/11:00am 28.2 26.6 20.8 64 4.9 ESE 30 43 16 23 1014.7 - 0.0
19/10:30am 28.0 26.6 20.4 63 5.0 ESE 28 37 15 20 1015.0 - 0.0
19/10:00am 28.2 27.4 20.8 64 4.9 ESE 26 39 14 21 1015.1 - 0.0
19/09:36am 28.1 27.1 21.3 66 4.5 E 28 46 15 25 1015.0 - 0.0
19/09:30am 27.7 26.2 20.9 66 4.5 ESE 30 46 16 25 1015.0 - 0.0
19/09:28am 27.5 26.3 20.8 67 4.4 ESE 28 46 15 25 1015.0 - 0.0
19/09:00am 27.5 26.2 20.7 66 4.5 E 28 37 15 20 1014.9 1014.8 1.2
19/08:30am 27.1 26.0 20.2 66 4.5 ESE 26 39 14 21 1014.4 - 1.0
19/08:00am 26.9 25.9 20.5 68 4.2 ESE 26 37 14 20 1014.2 - 1.0
19/07:30am 25.7 26.3 21.0 75 3.1 ESE 19 28 10 15 1013.7 - 1.0
19/07:00am 25.4 26.3 20.8 75 3.0 ESE 17 24 9 13 1013.5 - 1.0
19/06:30am 25.4 26.2 20.7 75 3.1 ESE 17 26 9 14 1013.3 - 1.0
19/06:00am 25.4 26.0 21.0 76 2.9 ESE 19 30 10 16 1013.0 1012.9 1.0
19/05:30am 25.4 25.4 20.2 73 3.4 ESE 20 28 11 15 1013.0 - 1.0
19/05:00am 25.5 25.2 20.4 73 3.3 ESE 22 32 12 17 1012.9 - 1.0
19/04:30am 25.3 26.2 20.9 76 2.9 ESE 17 26 9 14 1012.9 - 1.0
19/04:00am 25.3 26.2 20.9 76 2.9 ESE 17 26 9 14 1012.9 - 1.0
19/03:30am 25.6 26.4 20.7 74 3.2 ESE 17 22 9 12 1013.2 - 1.0
19/03:00am 25.5 26.4 20.8 75 3.1 ESE 17 26 9 14 1013.4 1013.3 1.0
19/02:30am 25.6 26.0 20.6 74 3.3 ESE 19 26 10 14 1013.4 - 1.0
19/02:00am 25.4 26.7 20.8 75 3.0 ESE 15 20 8 11 1013.6 - 1.0
19/01:30am 25.4 27.0 20.7 75 3.1 ESE 13 20 7 11 1014.0 - 1.0

Other Formats:

Comma delimited format used in spreadsheet applications
http://www.bom.gov.au/fwo/IDQ60801/IDQ60801.95283.axf

JavaScript Object Notation format (JSON) in row-major order
http://www.bom.gov.au/fwo/IDQ60801/IDQ60801.95283.json